• Join FlightAware (Why Join?)
  • Login
  • US Flag 
12:10AM EDT


 

Airport Tracker/Info


-or-


 

Live Flight TrackerFlight Track Log ✈ FEX100 ✈ 17-Oct-2013 ✈ CYEL - CYAM

Flight Track Log - Related Links

Times and Time Zones

All times are in EDT time to prevent confusion due to time zone crossing. See the FEX100 flight status page for this flight to view local times or setup timezone preferences in your user account.

Time Position Orientation Groundspeed Altitude Reporting Facility
EDT Latitude Longitude Course Direction KTS MPH feet Rate Location/Type
09:18AM 46.3500 -82.7167 270° West 220 253 5,000  Level Toronto Center
09:19AM 46.3500 -82.8000 270° West 180 207 7,000 1,740 Climbing Toronto Center
09:20AM 46.3500 -82.8667 270° West 180 207 8,500 1,320 Climbing Toronto Center
09:21AM 46.3667 -82.9500 286° West 180 207 9,700 720 Climbing Toronto Center
09:22AM 46.3667 -83.0167 270° West 190 219 10,000 120 Climbing Toronto Center
09:23AM 46.3667 -83.1167 270° West 220 253 10,000  Level Toronto Center
09:24AM 46.3833 -83.2167 284° West 230 265 10,000  Level Toronto Center
09:25AM 46.3833 -83.2833 270° West 230 265 10,000  Level Toronto Center
09:26AM 46.3833 -83.3833 270° West 230 265 10,000  Level Toronto Center
09:27AM 46.4000 -83.4833 284° West 240 276 10,000  Level Toronto Center
09:28AM 46.4000 -83.5667 270° West 230 265 10,000  Level Toronto Center
09:29AM 46.4167 -83.6667 284° West 230 265 10,000 -300 Level Toronto Center
09:30AM 46.4333 -83.7667 284° West 230 265 9,400 -1,140 Descending Toronto Center
09:31AM 46.4167 -83.8667 256° West 260 299 7,800 -1,500 Descending Toronto Center
09:32AM 46.4333 -83.9667 284° West 270 311 6,400 -1,500 Descending Toronto Center
09:33AM 46.4500 -84.0833 282° West 250 288 4,900 -1,020 Descending Toronto Center
09:34AM 46.4500 -84.1833 270° West 250 288 4,400 -900 Descending Toronto Center
09:35AM 46.4500 -84.2833 270° West 240 276 3,200 -840 Descending Toronto Center
09:36AM 46.4667 -84.3500 290° West 220 253 2,800 -660 Descending Toronto Center
09:37AM 46.4667 -84.4333 270° West 180 207 1,900 -960 Descending Toronto Center
09:38AM 46.4667 -84.4667 270° West 130 150 900 -660 Descending Toronto Center
09:39AM 46.4667 -84.5000 270° West 80 92 600 -300 Descending Toronto Center